Time;durP1;ratioP1;P1;durP2;ratioP2;P2;SDS_P1;SDS_P2;PMS_P1;PMS_P2;Temp;Humidity;BMP_temperature;BMP_pressure;BME280_temperature;BME280_humidity;BME280_pressure;Samples;Min_cycle;Max_cycle;Signal;HPM_P1;HPM_P2
2022/04/12 00:00:19;;;;;;;8.57;3.00;;;9.30;99.90;;;;;;4882772;29;20033;-86
2022/04/12 00:02:46;;;;;;;6.20;2.55;;;9.40;99.90;;;;;;4867233;29;20036;-86
2022/04/12 00:05:13;;;;;;;8.82;2.70;;;9.40;99.90;;;;;;4882842;29;20052;-86
2022/04/12 00:07:41;;;;;;;14.60;2.95;;;9.40;99.90;;;;;;4882805;29;20032;-87
2022/04/12 00:10:09;;;;;;;4.53;2.00;;;9.40;99.90;;;;;;4882600;29;20032;-86
2022/04/12 00:12:37;;;;;;;6.38;2.17;;;9.40;99.90;;;;;;4882663;29;20041;-86
2022/04/12 00:15:06;;;;;;;9.00;2.63;;;9.40;99.90;;;;;;4882512;29;20115;-86
2022/04/12 00:20:21;;;;;;;6.60;2.30;;;9.40;99.90;;;;;;4913703;29;20115;-86
2022/04/12 00:22:48;;;;;;;5.53;2.58;;;9.40;99.90;;;;;;4882421;29;20061;-87
2022/04/12 00:25:14;;;;;;;8.20;3.22;;;9.30;99.90;;;;;;4882589;29;20029;-86
2022/04/12 00:27:41;;;;;;;6.88;2.63;;;9.20;99.90;;;;;;4864316;29;20032;-86
2022/04/12 00:30:12;;;;;;;12.73;3.17;;;9.10;99.90;;;;;;4913552;29;20036;-87
2022/04/12 00:32:40;;;;;;;5.85;2.25;;;9.10;99.90;;;;;;4882568;29;20025;-86
2022/04/12 00:35:08;;;;;;;5.60;2.42;;;9.00;99.90;;;;;;4882284;29;20108;-86
2022/04/12 00:37:34;;;;;;;7.25;2.60;;;8.90;99.90;;;;;;4882232;29;20037;-86
2022/04/12 00:40:05;;;;;;;6.75;2.72;;;9.00;99.90;;;;;;4887863;29;20427;-87
2022/04/12 00:42:32;;;;;;;8.15;2.58;;;8.90;99.90;;;;;;4870345;29;20028;-86
2022/04/12 00:44:59;;;;;;;7.60;3.15;;;8.80;99.90;;;;;;4917170;29;20107;-84
2022/04/12 00:47:26;;;;;;;7.43;2.60;;;8.70;99.90;;;;;;4888459;29;20036;-86
2022/04/12 00:49:52;;;;;;;4.80;2.47;;;8.70;99.90;;;;;;4888297;29;20040;-86
2022/04/12 00:52:19;;;;;;;7.28;2.70;;;8.70;99.90;;;;;;4888493;29;20494;-86
2022/04/12 00:54:48;;;;;;;6.50;3.00;;;8.70;99.90;;;;;;4888204;29;20072;-86
2022/04/12 00:57:16;;;;;;;5.15;2.65;;;8.60;99.90;;;;;;4888433;29;20128;-86
2022/04/12 00:59:46;;;;;;;4.93;2.67;;;8.70;99.90;;;;;;4888337;29;20032;-86
2022/04/12 01:02:13;;;;;;;6.28;2.72;;;8.80;99.90;;;;;;4888252;29;20067;-87
2022/04/12 01:04:40;;;;;;;6.97;2.67;;;8.90;99.90;;;;;;4870549;29;20398;-86
2022/04/12 01:07:07;;;;;;;6.55;2.90;;;8.90;99.90;;;;;;4888579;29;20036;-86
2022/04/12 01:09:33;;;;;;;11.95;2.78;;;8.90;99.90;;;;;;4870253;29;20503;-87
2022/04/12 01:12:09;;;;;;;9.40;2.92;;;8.80;99.90;;;;;;4888279;29;20092;-86
2022/04/12 01:14:36;;;;;;;9.90;3.25;;;8.60;99.90;;;;;;4888024;29;20048;-86
2022/04/12 01:17:08;;;;;;;10.57;3.05;;;8.70;99.90;;;;;;4888373;29;20084;-86
2022/04/12 01:19:34;;;;;;;7.00;2.78;;;8.70;99.90;;;;;;4903825;29;20092;-86
2022/04/12 01:22:08;;;;;;;8.23;2.97;;;8.80;99.90;;;;;;4887981;29;20474;-86
2022/04/12 01:24:35;;;;;;;8.98;3.05;;;8.80;99.90;;;;;;4888298;29;20036;-87
2022/04/12 01:27:02;;;;;;;11.90;3.33;;;8.90;99.90;;;;;;4888558;29;20033;-87
2022/04/12 01:29:44;;;;;;;10.13;3.42;;;8.80;99.90;;;;;;4869781;29;20032;-86
2022/04/12 01:32:17;;;;;;;8.68;3.92;;;8.90;99.90;;;;;;4869225;29;20039;-86
2022/04/12 01:34:44;;;;;;;9.77;3.97;;;8.90;99.90;;;;;;4882623;29;20070;-87
2022/04/12 01:37:10;;;;;;;8.55;3.45;;;8.80;99.90;;;;;;4888063;29;20039;-86
2022/04/12 01:39:37;;;;;;;12.25;4.30;;;8.80;99.90;;;;;;4869690;29;20036;-86
2022/04/12 01:42:04;;;;;;;10.05;4.10;;;8.70;99.90;;;;;;4887982;29;20035;-86
2022/04/12 01:44:30;;;;;;;10.73;4.28;;;8.70;99.90;;;;;;4888083;29;20039;-86
2022/04/12 01:46:57;;;;;;;11.07;4.90;;;8.60;99.90;;;;;;4869868;29;20032;-86
2022/04/12 01:49:23;;;;;;;10.93;5.20;;;8.50;99.90;;;;;;4870173;29;20498;-87
2022/04/12 01:51:50;;;;;;;8.73;5.15;;;8.50;99.90;;;;;;4865721;29;20029;-86
2022/04/12 01:54:23;;;;;;;11.20;5.05;;;8.50;99.90;;;;;;4885116;29;20036;-86
2022/04/12 01:56:50;;;;;;;10.38;4.85;;;8.50;99.90;;;;;;4885000;29;20041;-87
2022/04/12 01:59:16;;;;;;;12.13;5.88;;;8.50;99.90;;;;;;4869401;29;20029;-86
2022/04/12 02:01:43;;;;;;;9.45;5.50;;;8.50;99.90;;;;;;4884913;29;20032;-86
2022/04/12 02:04:09;;;;;;;9.65;5.28;;;8.50;99.90;;;;;;4884920;29;20056;-86
2022/04/12 02:06:36;;;;;;;14.20;5.63;;;8.40;99.90;;;;;;4884907;29;20032;-86
2022/04/12 02:09:02;;;;;;;9.02;5.32;;;8.40;99.90;;;;;;4884959;29;20060;-86
2022/04/12 02:11:29;;;;;;;12.57;5.75;;;8.40;99.90;;;;;;4884900;29;20042;-86
2022/04/12 02:13:55;;;;;;;12.35;6.38;;;8.30;99.90;;;;;;4884617;29;20041;-87
2022/04/12 02:16:23;;;;;;;13.30;5.43;;;8.20;99.90;;;;;;4884628;29;20482;-86
2022/04/12 02:18:49;;;;;;;17.58;6.43;;;8.10;99.90;;;;;;4884645;29;20032;-86
2022/04/12 02:21:16;;;;;;;14.90;6.55;;;8.10;99.90;;;;;;4884401;29;20104;-86
2022/04/12 02:23:45;;;;;;;11.13;5.97;;;8.20;99.90;;;;;;4884438;29;20024;-86
2022/04/12 02:26:12;;;;;;;12.35;6.60;;;8.20;99.90;;;;;;4900091;29;20092;-86
2022/04/12 02:28:39;;;;;;;13.68;5.90;;;8.00;99.90;;;;;;4884480;29;20025;-86
2022/04/12 02:31:05;;;;;;;11.18;6.40;;;8.10;99.90;;;;;;4884403;29;20033;-86
2022/04/12 02:33:32;;;;;;;11.93;6.28;;;8.00;99.90;;;;;;4884406;29;20033;-86
2022/04/12 02:35:58;;;;;;;13.63;6.50;;;8.00;99.90;;;;;;4884210;29;20036;-86
2022/04/12 02:38:25;;;;;;;13.02;6.22;;;8.10;99.90;;;;;;4884164;29;20123;-86
2022/04/12 02:40:52;;;;;;;11.80;5.88;;;8.10;99.90;;;;;;4884225;29;20041;-86
2022/04/12 02:43:18;;;;;;;15.77;6.10;;;8.10;99.90;;;;;;4884089;29;20106;-86
2022/04/12 02:45:46;;;;;;;11.48;6.00;;;8.10;99.90;;;;;;4884712;29;20368;-86
2022/04/12 02:48:13;;;;;;;12.63;6.07;;;8.10;99.90;;;;;;4884254;29;20044;-86
2022/04/12 02:50:40;;;;;;;12.48;6.88;;;8.00;99.90;;;;;;4884163;29;20021;-86
2022/04/12 02:53:08;;;;;;;13.27;6.65;;;7.90;99.90;;;;;;4884135;29;20043;-86
2022/04/12 02:55:35;;;;;;;15.35;7.07;;;7.90;99.90;;;;;;4883901;29;20033;-86
2022/04/12 02:58:02;;;;;;;13.85;6.45;;;7.90;99.90;;;;;;4884084;29;20025;-86
2022/04/12 03:00:28;;;;;;;11.77;6.63;;;7.80;99.90;;;;;;4884605;29;20099;-86
2022/04/12 03:02:55;;;;;;;14.32;6.22;;;7.70;99.90;;;;;;4865540;29;20037;-86
2022/04/12 03:05:22;;;;;;;8.77;5.18;;;7.50;99.90;;;;;;4865580;29;20084;-86
2022/04/12 03:07:48;;;;;;;13.05;5.90;;;7.40;99.90;;;;;;4883965;29;20033;-87
2022/04/12 03:10:15;;;;;;;12.35;6.00;;;7.40;99.90;;;;;;4879603;29;20152;-86
2022/04/12 03:12:42;;;;;;;9.77;5.50;;;7.60;99.90;;;;;;4908582;29;20115;-87
2022/04/12 03:15:09;;;;;;;13.70;6.15;;;7.70;99.90;;;;;;4865366;29;20037;-85
2022/04/12 03:17:36;;;;;;;15.75;6.13;;;7.70;99.90;;;;;;4878851;29;20036;-86
2022/04/12 03:20:04;;;;;;;14.10;6.70;;;7.70;99.90;;;;;;4865228;29;20028;-86
2022/04/12 03:22:30;;;;;;;9.10;5.50;;;7.50;99.90;;;;;;4864132;29;20175;-86
2022/04/12 03:24:57;;;;;;;15.20;6.43;;;7.40;99.90;;;;;;4877707;29;20033;-86
2022/04/12 03:27:24;;;;;;;10.77;5.63;;;7.50;99.90;;;;;;4864825;29;20025;-88
2022/04/12 03:29:50;;;;;;;14.43;6.13;;;7.40;99.90;;;;;;4880269;29;20120;-88
2022/04/12 03:32:17;;;;;;;12.30;5.63;;;7.50;99.90;;;;;;4877445;29;20487;-89
2022/04/12 03:34:45;;;;;;;14.65;5.75;;;7.50;99.90;;;;;;4864728;29;20175;-88
2022/04/12 03:37:13;;;;;;;13.63;6.05;;;7.50;99.90;;;;;;4876496;29;20040;-85
2022/04/12 03:39:39;;;;;;;9.95;5.55;;;7.60;99.90;;;;;;4875636;29;20025;-85
2022/04/12 03:42:11;;;;;;;14.82;6.07;;;7.40;99.90;;;;;;4868462;29;20037;-85
2022/04/12 03:44:39;;;;;;;12.18;5.45;;;7.20;99.90;;;;;;4880080;29;20029;-85
2022/04/12 03:47:07;;;;;;;10.60;5.50;;;7.30;99.90;;;;;;4875195;29;20035;-85
2022/04/12 03:49:36;;;;;;;11.20;5.05;;;7.30;99.90;;;;;;4896018;29;20480;-85
2022/04/12 03:52:07;;;;;;;10.30;4.97;;;7.30;99.90;;;;;;4879968;29;20040;-85
2022/04/12 03:54:37;;;;;;;13.43;5.25;;;7.30;99.90;;;;;;4863270;29;20124;-85
2022/04/12 03:57:04;;;;;;;12.90;5.25;;;7.30;99.90;;;;;;4864942;29;20118;-85
2022/04/12 03:59:31;;;;;;;7.93;4.85;;;7.30;99.90;;;;;;4861755;29;20116;-85
2022/04/12 04:01:58;;;;;;;8.80;4.90;;;7.40;99.90;;;;;;4892436;29;20514;-87
2022/04/12 04:04:27;;;;;;;9.05;5.57;;;7.40;99.90;;;;;;4880085;29;20035;-89
2022/04/12 04:06:54;;;;;;;9.15;5.38;;;7.50;99.90;;;;;;4876932;29;20037;-90
2022/04/12 04:09:21;;;;;;;10.63;5.22;;;7.40;99.90;;;;;;4848798;29;20119;-89
2022/04/12 04:11:48;;;;;;;13.98;5.47;;;7.50;99.90;;;;;;4875530;29;20037;-90
2022/04/12 04:14:17;;;;;;;10.45;5.45;;;7.40;99.90;;;;;;4879053;29;20391;-91
2022/04/12 04:16:44;;;;;;;11.40;5.78;;;7.50;99.90;;;;;;4895296;29;20041;-91
2022/04/12 04:19:11;;;;;;;9.02;5.20;;;7.60;99.90;;;;;;4895548;29;20149;-92
2022/04/12 04:21:38;;;;;;;13.65;5.50;;;7.60;99.90;;;;;;4882774;29;20052;-92
2022/04/12 04:24:05;;;;;;;14.80;5.85;;;7.60;99.90;;;;;;4901047;29;20040;-90
2022/04/12 04:26:32;;;;;;;8.65;5.32;;;7.50;99.90;;;;;;4900634;29;20063;-89
2022/04/12 04:28:58;;;;;;;11.20;5.65;;;7.60;99.90;;;;;;4884814;29;20051;-91
2022/04/12 04:31:25;;;;;;;14.48;6.47;;;7.60;99.90;;;;;;4900594;29;20060;-91
2022/04/12 04:33:52;;;;;;;11.52;6.18;;;7.60;99.90;;;;;;4881869;29;20033;-90
2022/04/12 04:36:18;;;;;;;11.43;6.03;;;7.70;99.90;;;;;;4897214;29;20534;-90
2022/04/12 04:38:45;;;;;;;11.55;6.22;;;7.60;99.90;;;;;;4897485;29;20664;-88
2022/04/12 04:41:11;;;;;;;9.50;5.63;;;7.70;99.90;;;;;;4897492;29;20029;-91
2022/04/12 04:43:38;;;;;;;13.68;5.85;;;7.50;99.90;;;;;;4897494;29;20454;-91
2022/04/12 04:46:05;;;;;;;15.15;5.72;;;7.50;99.90;;;;;;4897665;29;20037;-89
2022/04/12 04:48:31;;;;;;;11.68;6.20;;;7.50;99.90;;;;;;4881443;29;20033;-92
2022/04/12 04:50:59;;;;;;;11.48;6.63;;;7.60;99.90;;;;;;4897293;29;20021;-93
2022/04/12 04:53:26;;;;;;;9.98;5.28;;;7.60;99.90;;;;;;4881493;29;20040;-87
2022/04/12 04:55:52;;;;;;;12.65;5.75;;;7.60;99.90;;;;;;4865993;29;20053;-90
2022/04/12 04:58:19;;;;;;;9.88;5.38;;;7.40;99.90;;;;;;4860175;29;20536;-89
2022/04/12 05:00:46;;;;;;;9.57;5.95;;;7.40;99.90;;;;;;4875431;29;20423;-89
2022/04/12 05:03:13;;;;;;;12.32;6.38;;;7.40;99.90;;;;;;4875416;29;20034;-88
2022/04/12 05:05:39;;;;;;;10.80;6.25;;;7.60;99.90;;;;;;4875529;29;20045;-89
2022/04/12 05:08:06;;;;;;;13.80;6.65;;;7.70;99.90;;;;;;4875556;29;20037;-87
2022/04/12 05:10:39;;;;;;;10.38;6.22;;;7.80;99.90;;;;;;4867317;29;20037;-85
2022/04/12 05:13:06;;;;;;;10.80;5.55;;;7.90;99.90;;;;;;4882364;29;20521;-85
2022/04/12 05:15:33;;;;;;;8.23;5.32;;;8.10;99.90;;;;;;4866462;29;20051;-94
2022/04/12 05:17:59;;;;;;;15.60;6.15;;;8.10;99.90;;;;;;4866725;29;20398;-87
2022/04/12 05:20:26;;;;;;;12.93;5.53;;;8.10;99.90;;;;;;4881936;29;20028;-86
2022/04/12 05:22:54;;;;;;;9.18;5.25;;;8.00;99.90;;;;;;4881920;29;20403;-90
2022/04/12 05:25:21;;;;;;;9.57;5.50;;;8.20;99.90;;;;;;4897634;29;20092;-88
2022/04/12 05:27:48;;;;;;;14.25;5.97;;;8.20;99.90;;;;;;4885755;29;20471;-87
2022/04/12 05:30:16;;;;;;;9.05;5.30;;;8.40;99.90;;;;;;4885562;29;20116;-91
2022/04/12 05:32:43;;;;;;;12.02;6.03;;;8.50;99.90;;;;;;4885603;29;20116;-86
2022/04/12 05:35:11;;;;;;;9.95;6.07;;;8.50;99.90;;;;;;4884942;29;20494;-85
2022/04/12 05:37:46;;;;;;;10.75;5.38;;;8.60;99.90;;;;;;4884943;29;20482;-88
2022/04/12 05:40:14;;;;;;;11.23;5.13;;;8.70;99.90;;;;;;4885202;29;20036;-85
2022/04/12 05:42:42;;;;;;;14.77;5.57;;;8.80;99.90;;;;;;4885039;29;20025;-85
2022/04/12 05:45:11;;;;;;;13.40;4.97;;;8.90;99.90;;;;;;4884808;29;20509;-85
2022/04/12 05:47:46;;;;;;;7.65;4.50;;;8.90;99.90;;;;;;4885109;29;20033;-85
2022/04/12 05:50:14;;;;;;;7.95;4.65;;;8.90;99.90;;;;;;4885284;29;20151;-87
2022/04/12 05:52:43;;;;;;;10.32;5.28;;;9.00;99.90;;;;;;4884917;29;20092;-85
2022/04/12 05:55:15;;;;;;;6.20;4.00;;;9.10;99.90;;;;;;4884677;29;20037;-86
2022/04/12 05:57:52;;;;;;;13.52;4.57;;;9.40;99.90;;;;;;4884848;29;20510;-88
2022/04/12 06:00:29;;;;;;;12.48;4.72;;;9.40;99.90;;;;;;4900200;29;20033;-86
2022/04/12 06:02:56;;;;;;;11.15;5.10;;;9.50;99.90;;;;;;4900364;29;20123;-86
2022/04/12 06:05:25;;;;;;;9.25;5.00;;;9.80;99.90;;;;;;4884906;29;20029;-88
2022/04/12 06:07:51;;;;;;;11.15;4.72;;;10.20;99.90;;;;;;4885040;29;20118;-88
2022/04/12 06:10:20;;;;;;;12.25;4.28;;;10.40;99.90;;;;;;4884768;29;20360;-89
2022/04/12 06:12:47;;;;;;;9.50;4.45;;;10.70;99.90;;;;;;4884709;29;20067;-88
2022/04/12 06:15:14;;;;;;;8.85;3.45;;;10.50;99.90;;;;;;4884759;29;20040;-88
2022/04/12 06:17:41;;;;;;;5.80;3.50;;;10.60;99.90;;;;;;4896150;29;20035;-88
2022/04/12 06:20:15;;;;;;;9.73;3.60;;;11.00;99.90;;;;;;4869290;29;20403;-88
2022/04/12 06:22:42;;;;;;;5.45;3.10;;;11.20;99.90;;;;;;4884286;29;20048;-88
2022/04/12 06:25:11;;;;;;;7.13;2.97;;;11.60;99.90;;;;;;4900210;29;20123;-88
2022/04/12 06:27:40;;;;;;;7.03;2.90;;;11.80;99.90;;;;;;4900074;29;20183;-88
2022/04/12 06:30:15;;;;;;;6.05;2.58;;;12.00;99.90;;;;;;4884586;29;20044;-88
2022/04/12 06:32:43;;;;;;;5.45;2.88;;;12.10;99.90;;;;;;4884382;29;20032;-88
2022/04/12 06:35:14;;;;;;;4.97;3.15;;;12.00;99.90;;;;;;4884667;29;20127;-88
2022/04/12 06:37:43;;;;;;;6.55;2.50;;;12.40;99.90;;;;;;4883908;29;20036;-88
2022/04/12 06:40:12;;;;;;;6.47;2.47;;;12.60;99.90;;;;;;4884288;29;20028;-88
2022/04/12 06:42:39;;;;;;;10.77;3.35;;;12.90;99.90;;;;;;4868997;29;20036;-88
2022/04/12 06:45:08;;;;;;;5.95;3.08;;;13.10;99.90;;;;;;4884061;29;20028;-88
2022/04/12 06:47:36;;;;;;;4.78;2.30;;;13.40;99.90;;;;;;4884300;29;20033;-88
2022/04/12 06:50:04;;;;;;;7.43;2.58;;;13.80;99.90;;;;;;4884092;29;20184;-88
2022/04/12 06:52:32;;;;;;;5.93;2.30;;;13.80;99.90;;;;;;4866198;29;20021;-88
2022/04/12 06:54:59;;;;;;;5.68;2.50;;;14.40;99.90;;;;;;4884039;29;20040;-88
2022/04/12 06:57:35;;;;;;;3.80;2.08;;;14.20;99.90;;;;;;4866531;29;20035;-88
2022/04/12 07:00:06;;;;;;;6.10;1.83;;;14.20;99.90;;;;;;4884008;29;20124;-87
2022/04/12 07:02:34;;;;;;;7.15;2.05;;;14.50;99.90;;;;;;4865903;29;20139;-86
2022/04/12 07:05:01;;;;;;;6.47;2.35;;;14.20;99.90;;;;;;4883956;29;20098;-87
2022/04/12 07:07:28;;;;;;;4.38;1.67;;;14.50;99.90;;;;;;4867986;29;20035;-88
2022/04/12 07:09:56;;;;;;;6.97;2.20;;;14.80;99.90;;;;;;4883992;29;20112;-88
2022/04/12 07:12:24;;;;;;;5.90;1.92;;;15.10;99.90;;;;;;4883887;29;20055;-90
2022/04/12 07:14:52;;;;;;;4.20;1.90;;;15.40;99.90;;;;;;4883256;29;20089;-85
2022/04/12 07:17:19;;;;;;;4.65;1.80;;;16.20;99.90;;;;;;4882824;29;20032;-86
2022/04/12 07:19:46;;;;;;;4.57;1.33;;;16.60;99.90;;;;;;4883274;29;20032;-90
2022/04/12 07:22:16;;;;;;;6.57;1.38;;;16.60;99.90;;;;;;4883774;29;20056;-89
2022/04/12 07:24:43;;;;;;;5.07;1.10;;;16.70;99.90;;;;;;4865406;29;20119;-88
2022/04/12 07:27:11;;;;;;;4.07;1.08;;;16.60;99.90;;;;;;4883675;29;20021;-88
2022/04/12 07:29:44;;;;;;;4.22;1.30;;;17.00;99.90;;;;;;4883382;29;20033;-87
2022/04/12 07:32:10;;;;;;;2.28;1.27;;;17.30;99.90;;;;;;4894715;29;20043;-85
2022/04/12 07:34:37;;;;;;;3.25;1.55;;;18.20;99.90;;;;;;4883432;29;20040;-85
2022/04/12 07:37:04;;;;;;;2.60;1.20;;;17.40;99.90;;;;;;4882748;29;20024;-84
2022/04/12 07:39:31;;;;;;;6.43;1.20;;;17.70;99.90;;;;;;4898025;29;20037;-85
2022/04/12 07:41:59;;;;;;;5.97;1.25;;;17.70;99.90;;;;;;4882793;29;20029;-86
2022/04/12 07:44:26;;;;;;;2.25;1.13;;;18.70;99.90;;;;;;4882438;29;20525;-85
2022/04/12 07:46:55;;;;;;;4.35;1.17;;;19.30;99.90;;;;;;4882627;29;20036;-90
2022/04/12 07:49:22;;;;;;;2.20;0.80;;;19.80;99.90;;;;;;4882526;29;20119;-88
2022/04/12 07:51:54;;;;;;;2.45;0.95;;;20.20;99.90;;;;;;4882939;29;20033;-89
2022/04/12 07:54:21;;;;;;;2.50;0.93;;;20.40;99.90;;;;;;4898776;29;20088;-92
2022/04/12 07:56:50;;;;;;;5.10;0.98;;;21.00;99.90;;;;;;4883989;29;20115;-92
2022/04/12 07:59:19;;;;;;;5.75;1.05;;;21.90;99.90;;;;;;4865671;29;20100;-90
2022/04/12 08:01:47;;;;;;;2.38;1.00;;;21.70;99.90;;;;;;4883575;29;20032;-91
2022/04/12 08:09:48;;;;;;;3.80;1.00;;;19.90;99.90;;;;;;5133299;27;20118;-89
2022/04/12 08:12:15;;;;;;;5.07;1.20;;;19.70;99.90;;;;;;5086793;28;20034;-88
2022/04/12 08:14:41;;;;;;;1.63;0.85;;;18.80;99.90;;;;;;5077316;28;20034;-89
2022/04/12 08:17:08;;;;;;;3.03;0.75;;;18.80;99.90;;;;;;5077256;28;20077;-89
2022/04/12 08:19:35;;;;;;;1.98;0.85;;;18.90;99.90;;;;;;5073672;28;20024;-88
2022/04/12 08:22:05;;;;;;;3.40;1.00;;;19.00;99.90;;;;;;5052708;28;20031;-88
2022/04/12 08:24:32;;;;;;;1.83;0.80;;;18.60;99.90;;;;;;5069350;28;20515;-88
2022/04/12 08:26:59;;;;;;;2.50;0.85;;;17.70;99.90;;;;;;5056779;28;20067;-88
2022/04/12 08:29:26;;;;;;;3.03;1.00;;;17.70;99.90;;;;;;5056700;28;20043;-88
2022/04/12 08:31:52;;;;;;;5.25;1.77;;;17.70;99.90;;;;;;5056687;28;20381;-88
2022/04/12 08:34:20;;;;;;;2.40;1.38;;;17.70;99.90;;;;;;5056729;28;20032;-88
2022/04/12 08:36:46;;;;;;;5.63;0.80;;;17.90;99.90;;;;;;5056585;28;20032;-86
2022/04/12 08:39:13;;;;;;;1.95;1.10;;;18.30;99.90;;;;;;5056590;28;20051;-89
2022/04/12 08:41:41;;;;;;;1.77;0.93;;;18.40;99.90;;;;;;5073232;28;20028;-89
2022/04/12 08:44:11;;;;;;;4.22;0.90;;;18.80;99.90;;;;;;5053408;28;20021;-89
2022/04/12 08:46:44;;;;;;;3.72;1.10;;;19.50;99.90;;;;;;5056798;28;20549;-89
2022/04/12 08:49:15;;;;;;;1.90;0.95;;;20.50;99.90;;;;;;5056643;28;20124;-91
2022/04/12 08:51:45;;;;;;;4.50;1.15;;;21.10;99.90;;;;;;5072870;28;20487;-85
2022/04/12 08:54:12;;;;;;;2.90;0.85;;;21.60;99.90;;;;;;5055876;28;20036;-86
2022/04/12 08:56:40;;;;;;;2.25;0.70;;;21.20;99.90;;;;;;5055873;28;20035;-88
2022/04/12 08:59:06;;;;;;;1.88;1.10;;;20.30;99.90;;;;;;5056126;28;20111;-85
2022/04/12 09:01:34;;;;;;;5.38;1.15;;;19.80;99.90;;;;;;5056069;28;20035;-86
2022/04/12 09:04:01;;;;;;;1.67;0.90;;;19.20;99.90;;;;;;5055799;28;20028;-85
2022/04/12 09:06:28;;;;;;;1.52;0.80;;;18.60;99.90;;;;;;5072292;28;20028;-86
2022/04/12 09:08:55;;;;;;;3.45;1.10;;;18.60;99.90;;;;;;5065204;28;20135;-86
2022/04/12 09:11:22;;;;;;;0.80;0.80;;;18.80;99.90;;;;;;5072797;28;20024;-86
2022/04/12 09:14:00;;;;;;;2.80;0.95;;;18.10;99.90;;;;;;5072293;28;20065;-85
2022/04/12 09:16:28;;;;;;;3.17;0.95;;;17.70;99.90;;;;;;5072322;28;20119;-87
2022/04/12 09:18:58;;;;;;;2.40;0.77;;;17.50;99.90;;;;;;5071545;28;20051;-85
2022/04/12 09:21:30;;;;;;;1.65;0.70;;;17.30;99.90;;;;;;5058608;28;20489;-90
2022/04/12 09:23:58;;;;;;;4.00;0.88;;;17.40;99.90;;;;;;5075453;28;20024;-84
2022/04/12 09:26:29;;;;;;;2.70;0.70;;;17.20;99.90;;;;;;5058798;28;20059;-83
2022/04/12 09:28:58;;;;;;;3.72;1.08;;;17.30;99.90;;;;;;5075417;28;20032;-86
2022/04/12 09:31:25;;;;;;;2.13;0.90;;;17.20;99.90;;;;;;5058906;28;20040;-87
2022/04/12 09:33:54;;;;;;;1.50;0.68;;;17.20;99.90;;;;;;5058922;28;20028;-85
2022/04/12 09:36:21;;;;;;;1.48;0.75;;;17.30;99.90;;;;;;5058475;28;20100;-85
2022/04/12 09:38:56;;;;;;;1.35;0.60;;;17.40;99.90;;;;;;5058605;28;20029;-85
2022/04/12 09:41:24;;;;;;;;;;;17.30;99.90;;;;;;5058959;28;20047;-92
2022/04/12 09:44:11;;;;;;;3.60;0.70;;;17.40;99.90;;;;;;5075114;28;19908;-86
2022/04/12 09:46:39;;;;;;;1.08;0.70;;;17.30;99.90;;;;;;5058241;28;20169;-84
2022/04/12 09:49:07;;;;;;;0.47;0.47;;;17.30;99.90;;;;;;5058271;28;20103;-85
2022/04/12 09:51:42;;;;;;;1.08;0.52;;;17.20;99.90;;;;;;5058405;28;20111;-85
2022/04/12 09:54:20;;;;;;;2.13;0.63;;;17.20;99.90;;;;;;5058335;28;20086;-85
2022/04/12 09:56:49;;;;;;;1.63;0.60;;;17.20;99.90;;;;;;5058291;28;20021;-85
2022/04/12 09:59:16;;;;;;;1.30;0.70;;;17.30;99.90;;;;;;5058004;28;20032;-85
2022/04/12 10:01:43;;;;;;;0.95;0.65;;;17.20;99.90;;;;;;5058123;28;20054;-84
2022/04/12 10:04:11;;;;;;;2.08;0.70;;;17.10;99.90;;;;;;5074868;28;20020;-88
2022/04/12 10:06:42;;;;;;;2.55;0.70;;;17.20;99.90;;;;;;5058419;28;20029;-88
2022/04/12 10:09:13;;;;;;;1.15;0.70;;;17.20;99.90;;;;;;5058183;28;20416;-88
2022/04/12 10:11:39;;;;;;;0.82;0.50;;;17.30;99.90;;;;;;5058505;28;20029;-88
2022/04/12 10:14:10;;;;;;;2.65;0.60;;;17.30;99.90;;;;;;5058287;28;20090;-87
2022/04/12 10:16:39;;;;;;;3.75;0.82;;;17.40;99.90;;;;;;5058267;28;20028;-88
2022/04/12 10:19:07;;;;;;;0.98;0.80;;;17.40;99.90;;;;;;5058160;28;20551;-88
2022/04/12 10:21:35;;;;;;;0.95;0.60;;;17.50;99.90;;;;;;5058066;28;20047;-88
2022/04/12 10:24:12;;;;;;;1.48;0.52;;;17.40;99.90;;;;;;5058059;28;20027;-89
2022/04/12 10:26:47;;;;;;;0.70;0.70;;;17.40;99.90;;;;;;5058295;28;20622;-88
2022/04/12 10:29:15;;;;;;;2.35;0.80;;;17.50;99.90;;;;;;5057831;28;20056;-88
2022/04/12 10:31:58;;;;;;;1.58;0.63;;;17.40;99.90;;;;;;5056944;28;20478;-88
2022/04/12 10:34:28;;;;;;;1.30;0.98;;;17.30;99.90;;;;;;5057950;28;20432;-88
2022/04/12 10:37:13;;;;;;;0.65;0.55;;;17.20;99.90;;;;;;5056148;28;20054;-88
2022/04/12 10:39:49;;;;;;;0.80;0.80;;;17.20;99.90;;;;;;5058818;28;20031;-89
2022/04/12 10:42:25;;;;;;;0.82;0.60;;;17.20;99.90;;;;;;5057527;28;20039;-88
2022/04/12 10:44:58;;;;;;;2.00;0.60;;;17.30;99.90;;;;;;5075447;28;20024;-89
2022/04/12 10:47:29;;;;;;;0.50;0.50;;;17.30;99.90;;;;;;5057720;28;20032;-89
2022/04/12 10:50:17;;;;;;;2.65;0.82;;;17.20;99.90;;;;;;5057940;28;20032;-87
2022/04/12 10:52:50;;;;;;;2.00;0.65;;;17.30;99.90;;;;;;5074000;28;20037;-88
2022/04/12 10:55:42;;;;;;;0.50;0.50;;;17.20;99.90;;;;;;5073974;28;20048;-89
2022/04/12 10:58:35;;;;;;;0.90;0.73;;;17.00;99.90;;;;;;5017065;28;20597;-89
2022/04/12 11:01:03;;;;;;;1.10;0.60;;;17.10;99.90;;;;;;5017129;28;20076;-88
2022/04/12 11:03:45;;;;;;;0.73;0.70;;;17.10;99.90;;;;;;5016861;28;20107;-88
2022/04/12 11:06:21;;;;;;;2.30;0.73;;;17.20;99.90;;;;;;5016802;28;20546;-88
2022/04/12 11:09:17;;;;;;;1.20;0.65;;;17.20;99.90;;;;;;5016591;28;20132;-88
2022/04/12 11:11:52;;;;;;;0.57;0.57;;;17.10;99.90;;;;;;5033096;28;20037;-89
2022/04/12 11:14:32;;;;;;;0.85;0.57;;;17.10;99.90;;;;;;5016709;28;20045;-89
2022/04/12 11:17:07;;;;;;;3.08;0.68;;;17.10;99.90;;;;;;5016854;28;20040;-87
2022/04/12 11:19:50;;;;;;;1.17;0.55;;;17.20;99.90;;;;;;5016426;28;20026;-88
2022/04/12 11:22:18;;;;;;;0.82;0.60;;;17.30;99.90;;;;;;5016440;28;20057;-88
2022/04/12 11:25:13;;;;;;;1.65;0.60;;;17.20;99.90;;;;;;5028310;28;20033;-88
2022/04/12 11:27:39;;;;;;;2.42;0.60;;;17.10;99.90;;;;;;5016254;28;20394;-88
2022/04/12 11:30:06;;;;;;;1.77;0.70;;;17.10;99.90;;;;;;5016347;28;20030;-88
2022/04/12 11:32:35;;;;;;;1.35;0.80;;;17.20;99.90;;;;;;5032890;28;20025;-88
2022/04/12 11:35:08;;;;;;;1.90;0.90;;;17.10;99.90;;;;;;5024904;28;20040;-88
2022/04/12 11:37:39;;;;;;;1.45;0.77;;;17.20;99.90;;;;;;5057134;28;20032;-89
2022/04/12 11:40:07;;;;;;;2.00;0.70;;;17.20;99.90;;;;;;5039968;28;20029;-87
2022/04/12 11:42:34;;;;;;;2.50;0.80;;;17.10;99.90;;;;;;5039418;28;20115;-89
2022/04/12 11:45:00;;;;;;;0.77;0.60;;;17.10;99.90;;;;;;5037777;28;20063;-88
2022/04/12 11:47:32;;;;;;;2.10;0.85;;;16.90;99.90;;;;;;5039803;28;20051;-88
2022/04/12 11:49:59;;;;;;;0.95;0.68;;;17.00;99.90;;;;;;5039766;28;20048;-89
2022/04/12 11:52:28;;;;;;;1.77;0.63;;;17.00;99.90;;;;;;5039754;28;20033;-88
2022/04/12 11:55:01;;;;;;;4.60;0.70;;;17.00;99.90;;;;;;5056748;28;20033;-88
2022/04/12 11:57:27;;;;;;;0.88;0.60;;;17.00;99.90;;;;;;5072591;28;20028;-83
2022/04/12 11:59:57;;;;;;;6.10;0.65;;;17.10;99.90;;;;;;5055720;28;20079;-84
2022/04/12 12:02:35;;;;;;;2.42;0.60;;;17.10;99.90;;;;;;5039021;28;20028;-84
2022/04/12 12:05:06;;;;;;;2.67;0.73;;;17.10;99.90;;;;;;5039062;28;20033;-83
2022/04/12 12:07:36;;;;;;;2.00;0.70;;;17.00;99.90;;;;;;5054232;28;20119;-86
2022/04/12 12:10:13;;;;;;;1.30;0.60;;;17.00;99.90;;;;;;5019272;28;20025;-83
2022/04/12 12:12:41;;;;;;;2.15;0.65;;;17.00;99.90;;;;;;5035449;28;20076;-82
2022/04/12 12:15:28;;;;;;;1.60;0.70;;;17.00;99.90;;;;;;5035803;28;20082;-84
2022/04/12 12:17:56;;;;;;;5.90;0.90;;;17.00;99.90;;;;;;5052133;28;20033;-84
2022/04/12 12:20:32;;;;;;;1.48;0.68;;;16.90;99.90;;;;;;5018847;28;20029;-83
2022/04/12 12:23:02;;;;;;;1.00;0.70;;;16.90;99.90;;;;;;5052512;28;20053;-81
2022/04/12 12:25:51;;;;;;;4.35;1.40;;;16.80;99.90;;;;;;5053279;28;20029;-83
2022/04/12 12:28:22;;;;;;;2.53;1.10;;;16.70;99.90;;;;;;5030268;28;20041;-83
2022/04/12 12:31:00;;;;;;;2.75;0.90;;;16.70;99.90;;;;;;5019036;28;20043;-86
2022/04/12 12:33:47;;;;;;;1.67;0.90;;;16.90;99.90;;;;;;5018878;28;20053;-82
2022/04/12 12:36:25;;;;;;;4.70;1.00;;;16.90;99.90;;;;;;5018866;28;20071;-82
2022/04/12 12:38:53;;;;;;;4.32;1.05;;;16.90;99.90;;;;;;5035141;28;20029;-82
2022/04/12 12:41:29;;;;;;;2.38;0.75;;;16.80;99.90;;;;;;5035242;28;20037;-83
2022/04/12 12:44:00;;;;;;;2.58;1.10;;;16.80;99.90;;;;;;5035205;28;20025;-83
2022/04/12 12:46:34;;;;;;;2.40;0.90;;;16.80;99.90;;;;;;5035132;28;20068;-84
2022/04/12 12:49:16;;;;;;;1.73;0.77;;;16.80;99.90;;;;;;5035379;28;20489;-84
2022/04/12 12:51:43;;;;;;;2.35;0.80;;;16.70;99.90;;;;;;5035149;28;20040;-82
2022/04/12 12:54:16;;;;;;;2.97;0.82;;;16.70;99.90;;;;;;5035575;28;20107;-85
2022/04/12 12:56:47;;;;;;;4.05;0.77;;;16.60;99.90;;;;;;5039458;28;20367;-85
2022/04/12 12:59:33;;;;;;;2.03;1.10;;;16.60;99.90;;;;;;5022682;28;20040;-85
2022/04/12 13:02:13;;;;;;;2.38;0.80;;;16.70;99.90;;;;;;5038823;28;20033;-83
2022/04/12 13:04:55;;;;;;;3.00;1.08;;;16.50;99.90;;;;;;5020111;28;20028;-84
2022/04/12 13:07:29;;;;;;;2.05;0.80;;;16.50;99.90;;;;;;5037551;28;20036;-84